Location:  
MeteoStar


Sort by weather type Sort by elevation Sort by visibility Sort from west to east north Sort from north to south Alphabetically Sort from strongest wind speed Sort from lowest to highest pressure Sort from highest to lowest dew point temperature Sort coolest temperatures to warmest Sort warm temperatures to coolest
 Metric

Current Observations for United Kingdom sorted by wind speed

Great Dun Fell05:00ZNot Avail.32 3213NNW 31 Gusting to 39 172778
Cairnwell05:00ZNot Avail.30 3017NW 26 Gusting to 41 163061
Baltasound05:00ZClear42 4131015.4SSE 25 Gusting to 32 3249
Aberporth05:00ZMist43 4161023.5NNW 21 Gusting to 26 34436
Little Rissington05:00ZNot Avail.43 42251019.4NNW 19 Gusting to 27 35705
Aberdaron05:00ZNot Avail.42 40101024.4NW 17 Gusting to 25 34311
Pembrey Sands04:50ZClear45 41121023.1N 17 Gusting to 28 389
Scilly; Saint MaryS05:00ZNot Avail.47 4391025.1N 17 Gusting to 25 40101
Liscombe05:00ZNot Avail.40 40131022.0N 15 321141
Fylingdales05:00ZNot Avail.43 4320NW 15 36859
Saint Bees Head05:00ZNot Avail.41 40101021.5NW 15 33406
Sule Skerry05:00ZNot Avail.45 4571018.0WNW 15 3852
Machrihanish05:00ZNot Avail.44 40101022.5NW 15 3742
Cardinham05:00ZNot Avail.43 N/A61023.2N 14 656
Lake Vyrnwy05:00ZNot Avail.40 37191022.2N 14 Gusting to 27 321181
Crosby05:00ZNot Avail.42 4171021.7NW 14 3526
Culdrose04:50ZMostly Cloudy46 4371023.2N 14 Gusting to 24 40255
Manchester Airport04:50ZClear43 3991020.2WNW 14 36226
Camborne05:00ZCloudy47 4371024.1N 13 41285
Mumbles05:00ZNot Avail.46 40121022.7NNW 13 Gusting to 25 40114
Church Lawford05:00ZMist45 4531019.2NW 13 39351
Bingley05:00ZClear41 38201019.5NW 13 34859
South Uist Range05:00ZHaze44 4061022WNW 13 3832
Tiree04:50ZPartly Cloudy45 4171022.1WNW 13 3939
Benbecula04:50ZClear45 41111022.1W 13 3919
Prestwick Airport04:50ZPartly Cloudy43 39111022.1WNW 13 3665
West Freugh05:00ZNot Avail.43 4171022.2WNW 13 3636
Shawbury04:50ZMostly Cloudy45 39101020.2NW 13 39249
East Midlands04:50ZLight Drizzle45 4541019.2W 13 39308
Leeds And Bradford04:50ZMostly Cloudy43 3981018.4NW 13 36682
Blackpool Airport05:00ZNot Avail.43 416NW 13 3632
Birmingham / Airport04:50ZCloudy45 4391019.2NW 13 39324
Pershore05:00ZNot Avail.45 42181020.9NW 12 Gusting to 25 39104
Odiham04:50ZCloudy48 4591018.2NNW 12 43403
Brize Norton04:50ZMostly Cloudy46 43201019.2NNW 12 40288
Lossiemouth04:50ZClear39 37201019.1W 12 3242
Glasgow Airport04:50ZClear43 37111021.1WNW 12 3726
Boscombe Down04:50ZMostly Cloudy46 43301019.2NNW 12 40406
Eskdalemuir05:00ZNot Avail.40 35121020.9NW 11 33793
Drumalbin05:00ZNot Avail.38 37151021.2W 11 31803
Glen Ogle05:00ZNot Avail.35 3430WNW 11 271850
Loch Glascanoch05:00ZClear38 36121021.2W 11 31869
Fair Isle04:50ZLight Drizzle42 4171016.7NNW 11 36187
Topcliffe Royal Air Force Base 04:50ZLight Rain45 410.061018.2NW 11 3991
Boulmer04:50ZMostly Cloudy45 39201018.2WNW 11 3975
Valley04:50ZClear45 4171023.1NNW 11 393
Jersey Airport04:50ZPartly Cloudy46 4641019.2NNW 11 41275
Guernsey Airport04:50ZClear46 46151020.2NNW 11 41334
Liverpool Airport 04:50ZLight Drizzle45 4141021.2NW 11 3985
Chivenor05:00ZNot Avail.46 4391022.9NNW 11 4126
Saint Helena Island05:00ZNot Avail.66 64101013.7ESE 10 661427
Lough Fea05:00ZNot Avail.39 35101025W 10 32738
Dundrennan05:00ZNot Avail.41 38131021.2NW 10 35374
Linton-On-Ouse04:50ZMostly Cloudy45 43171018.1NW 10 4052
Leeming04:50ZMostly Cloudy45 37251018.2NW 10 40131
Fairford Royal Air Force Base04:56ZCloudy47 441.251019.4NNW 10 42285
Scatsa / Shetland Island04:50ZCloudy43 39111016.2W 10 3772
Inverness / Dalcross04:50ZPartly Cloudy36 36111020.1WSW 10 2929
Hawarden05:00ZNot Avail.45 4181021.7NW 10 4032
Walney Island05:00ZNot Avail.43 4181021.2NNW 10 3749
Plymouth05:00ZNot Avail.47 45201022.4NNW 10 42164
Glenanne05:00ZNot Avail.38 36101024.5NW 9 32528
Saint Catherines Point05:00ZNot Avail.48 4471018.5WNW 9 4452
Isle Of Portland05:00ZNot Avail.46 4571020NNW 9 41173
Charterhall05:00ZNot Avail.40 35251019.2W 9 34367
Leuchars04:50ZNot Avail.41 36101019.1WNW 9 3539
Aberdeen / Dyce04:50ZCloudy41 37111019.2NW 9 35213
Isle Of Man / Ronaldsway Airport04:50ZNot Avail.43 3991022.1NW 9 3855
Shoreham Airport05:00ZNot Avail.49 4741017.4NNW 9 456
Yeovilton04:50ZHaze46 4541020.1NW 9 4175
Belfast / Harbour04:50ZClear41 3791024.1WNW 9 3516
Ballypatrick Forest05:00ZClear41 3881024NW 8 36511
Milford Haven05:00ZNot Avail.44 40121024.3NNW 8 39144
Bedford05:00ZClear45 452.51018.2WNW 8 41278
Shobdon05:00ZNot Avail.45 38171021.5NNW 8 41324
Warcop Range05:00ZNot Avail.39 38131020.5NNW 8 33744
Shap05:00ZNot Avail.41 37151020.9N 8 36816
Spadeadam05:00ZNot Avail.36 35101020.2WNW 8 30935
Wick05:00ZNot Avail.39 38201018.2W 8 33127
Sumburgh Cape 04:50ZLight Rain41 39131017.1NNE 8 3616
Spadeadam04:50ZClear36 3641018.6WNW 8 301066
Newcastle 05:20ZClear41 3791018.3WNW 8 36265
Farnborough05:00ZNot Avail.48 4591018.5NW 8 44213
Luton Airport 04:50ZMist46 451.51017.3NNW 8 42524
Bristol / Lulsgate 04:50ZCloudy45 4341020.4NNW 8 41620
Cardiff-Wales Airport04:50ZClear43 4141021.2NNW 8 38219
Langdon Bay05:00ZNot Avail.41 N/A31017.4NNE 7 383
Larkhill05:00ZNot Avail.46 42201019.7NW 7 42433
Aboyne05:00ZNot Avail.39 38151019.5W 7 34459
Northolt04:50ZMostly Cloudy48 4641018.2NNW 7 45124
Benson04:50ZMostly Cloudy48 4591018.2NNW 7 45206
Stornoway04:50ZClear39 3681020.1W 7 3429
Lyneham05:00ZNot Avail.46 4491020NNW 7 42475
Portglenone05:00ZNot Avail.38 3581024WNW 6 33209
Thorney Island05:00ZNot Avail.49 45131018.0N 6 4613
Kenley05:00ZLight Drizzle44 4431018NNE 6 41557
Trawscoed05:00ZNot Avail.42 4081023.2WNW 6 38206
Nottingham Weather Centre05:00ZLight Showers46 452.251018.9WNW 6 43383
Capel Curig05:00ZNot Avail.44 36201023.2NE 6 Gusting to 19 41708
Redesdale05:00ZNot Avail.39 36201019.5NW 6 35692
Strathallan05:00ZNot Avail.41 35301020.7SW 6 37114
Prestwick Rnas05:00ZNot Avail.43 4071021.7NW 6 3985
Inverbervie05:00ZNot Avail.38 37301019.2NNW 6 33439
Tulloch Bridge05:00ZNot Avail.38 36201022.4NW 6 33777
Aultbea05:00ZNot Avail.43 40111021.2W 6 3936
High Wicombe Hqstc05:00ZMist45 442.751018.7NNW 5 42669
Sennybridge05:00ZNot Avail.41 39201022.7NNW 5 381007
Keswick05:00ZNot Avail.43 39121021.4NW 5 40265
Stansted Airport04:50ZDrizzle43 4321017.3NW 5 40347
Edinburgh Airport04:50ZClear36 34111020.2WSW 5 32134
London / Gatwick Airport04:50ZMostly Cloudy48 4641017.2N 5 46203
Gravesend-Broadness05:00ZNot Avail.45 4431017.5NNW 4 439
Lerwick05:00ZRain40 3981017.0W 4 37269
Waddington04:50ZLight Drizzle45 450.061018.2W 4 43223
Middle Wallop04:50ZMostly Cloudy48 43151019.2NNW 4 47298
Tain Range05:00ZNot Avail.36 35131019.7WSW 4 3313
Humberside05:20ZFog45 450.251018.2WSW 4 43101
Lydd Airport 04:50ZCloudy45 4361017.1N 4 439
London / Heathrow Airport04:50ZCloudy48 4641018.1NNW 4 4778
London City Airport04:50ZRain46 452.51018.1NNW 4 4416
Shoeburyness05:00ZLight Drizzle42 420.751017.7NE 3 426
Cranwell04:50ZNot Avail.45 450.061018.2W 3 45219
Coningsby Royal Air Force Base04:50ZMist45 431.871018.1WNW 3 4522
Kirkwall Airport04:50ZPartly Cloudy41 39131018.2WSW 3 4168
Southend-On-Sea 04:50ZLight Rain43 411.871017.1N 3 4349
Bournemouth Airport05:00ZNot Avail.45 42131019.4NNW 3 4536
Weybourne05:00ZLight Rain42 410.871018.0ESE 2 4268
Bridlington Mrsc05:00ZNot Avail.43 43201017.4W 2 4349
Altnaharra05:00ZLight Showers37 3691019.7WSW 2 37265
Wainfleet05:00ZNot Avail.42 4211017.9NW 2 429
Marham04:50ZLight Drizzle43 410.251017.2N 2 4375
Leconfield04:50ZLight Drizzle43 430.621017.1WSW 2 4319
Manston05:00ZLight Drizzle42 420.871017.7NE 2 42180
Norwich Weather Centre04:50ZLight Rain43 431.51018.1SE 2 4345
Aviemore05:00ZClear34 34171021SSE 1 34721
Holbeach05:00ZNot Avail.42 420.181018.0N 1 429
Wittering04:50ZFog45 450.121017.2NW 1 45275
Castlederg05:00ZNot Avail.35 3371025.9CALM35167
Donna Nook05:00ZNot Avail.41 N/A0.751017.7CALM26
Wattisham04:50ZLight Drizzle41 411.251017.3CALM41285
Mildenhall Royal Air Force Base04:39ZLight Rain43 4341017.5CALM4332
Lakenheath Royal Air Force Base04:38ZLight Drizzle43 432.751017.2CALM4332
Belfast / Aldergrove Airport04:50ZNot Avail.36 3491024.3CALM36265


Atlantic
Tropical Watch